sensor_id;sensor_type;location;lat;lon;timestamp;P1;durP1;ratioP1;P2;durP2;ratioP2
51907;SDS011;39320;53.214;6.556;2023-02-03T00:00:57;5.03;;;1.95;;
51907;SDS011;39320;53.214;6.556;2023-02-03T00:03:23;2.15;;;1.52;;
51907;SDS011;39320;53.214;6.556;2023-02-03T00:05:49;2.17;;;1.50;;
51907;SDS011;39320;53.214;6.556;2023-02-03T00:08:15;2.42;;;1.90;;
51907;SDS011;39320;53.214;6.556;2023-02-03T00:10:42;3.25;;;1.60;;
51907;SDS011;39320;53.214;6.556;2023-02-03T00:13:09;2.10;;;1.42;;
51907;SDS011;39320;53.214;6.556;2023-02-03T00:15:34;2.70;;;2.03;;
51907;SDS011;39320;53.214;6.556;2023-02-03T00:18:00;2.17;;;1.42;;
51907;SDS011;39320;53.214;6.556;2023-02-03T00:20:26;4.22;;;1.35;;
51907;SDS011;39320;53.214;6.556;2023-02-03T00:22:52;1.92;;;1.40;;
51907;SDS011;39320;53.214;6.556;2023-02-03T00:25:17;3.45;;;1.90;;
51907;SDS011;39320;53.214;6.556;2023-02-03T00:27:45;2.67;;;1.40;;
51907;SDS011;39320;53.214;6.556;2023-02-03T00:30:11;4.65;;;1.67;;
51907;SDS011;39320;53.214;6.556;2023-02-03T00:32:37;2.80;;;1.55;;
51907;SDS011;39320;53.214;6.556;2023-02-03T00:35:03;2.95;;;1.77;;
51907;SDS011;39320;53.214;6.556;2023-02-03T00:37:30;3.85;;;2.00;;
51907;SDS011;39320;53.214;6.556;2023-02-03T00:39:55;2.17;;;1.92;;
51907;SDS011;39320;53.214;6.556;2023-02-03T00:42:21;2.92;;;1.70;;
51907;SDS011;39320;53.214;6.556;2023-02-03T00:44:47;4.05;;;1.60;;
51907;SDS011;39320;53.214;6.556;2023-02-03T00:47:12;2.42;;;1.70;;
51907;SDS011;39320;53.214;6.556;2023-02-03T00:49:38;2.72;;;1.60;;
51907;SDS011;39320;53.214;6.556;2023-02-03T00:52:04;5.18;;;1.63;;
51907;SDS011;39320;53.214;6.556;2023-02-03T00:54:30;3.65;;;1.50;;
51907;SDS011;39320;53.214;6.556;2023-02-03T00:56:55;5.85;;;1.48;;
51907;SDS011;39320;53.214;6.556;2023-02-03T00:59:21;2.25;;;1.50;;
51907;SDS011;39320;53.214;6.556;2023-02-03T01:01:47;4.38;;;1.65;;
51907;SDS011;39320;53.214;6.556;2023-02-03T01:04:14;3.63;;;2.45;;
51907;SDS011;39320;53.214;6.556;2023-02-03T01:06:39;2.95;;;1.95;;
51907;SDS011;39320;53.214;6.556;2023-02-03T01:09:05;5.25;;;2.28;;
51907;SDS011;39320;53.214;6.556;2023-02-03T01:11:31;2.30;;;1.63;;
51907;SDS011;39320;53.214;6.556;2023-02-03T01:13:57;3.97;;;1.83;;
51907;SDS011;39320;53.214;6.556;2023-02-03T01:16:26;2.88;;;1.90;;
51907;SDS011;39320;53.214;6.556;2023-02-03T01:18:53;2.92;;;1.70;;
51907;SDS011;39320;53.214;6.556;2023-02-03T01:21:20;4.07;;;1.83;;
51907;SDS011;39320;53.214;6.556;2023-02-03T01:23:48;4.38;;;2.47;;
51907;SDS011;39320;53.214;6.556;2023-02-03T01:26:16;2.72;;;1.63;;
51907;SDS011;39320;53.214;6.556;2023-02-03T01:28:44;4.68;;;1.88;;
51907;SDS011;39320;53.214;6.556;2023-02-03T01:31:25;3.03;;;2.03;;
51907;SDS011;39320;53.214;6.556;2023-02-03T01:33:56;3.58;;;1.70;;
51907;SDS011;39320;53.214;6.556;2023-02-03T01:36:23;1.90;;;1.65;;
51907;SDS011;39320;53.214;6.556;2023-02-03T01:38:50;3.05;;;1.90;;
51907;SDS011;39320;53.214;6.556;2023-02-03T01:41:18;2.97;;;1.83;;
51907;SDS011;39320;53.214;6.556;2023-02-03T01:43:46;3.72;;;1.85;;
51907;SDS011;39320;53.214;6.556;2023-02-03T01:48:45;3.92;;;1.83;;
51907;SDS011;39320;53.214;6.556;2023-02-03T01:51:11;2.38;;;1.50;;
51907;SDS011;39320;53.214;6.556;2023-02-03T01:53:37;4.82;;;1.75;;
51907;SDS011;39320;53.214;6.556;2023-02-03T01:56:03;3.55;;;1.80;;
51907;SDS011;39320;53.214;6.556;2023-02-03T01:58:31;3.78;;;1.67;;
51907;SDS011;39320;53.214;6.556;2023-02-03T02:01:00;3.50;;;1.90;;
51907;SDS011;39320;53.214;6.556;2023-02-03T02:03:47;4.00;;;1.98;;
51907;SDS011;39320;53.214;6.556;2023-02-03T02:06:14;6.20;;;2.00;;
51907;SDS011;39320;53.214;6.556;2023-02-03T02:08:41;4.57;;;2.08;;
51907;SDS011;39320;53.214;6.556;2023-02-03T02:11:10;4.68;;;1.88;;
51907;SDS011;39320;53.214;6.556;2023-02-03T02:13:36;5.15;;;1.70;;
51907;SDS011;39320;53.214;6.556;2023-02-03T02:16:09;5.63;;;2.25;;
51907;SDS011;39320;53.214;6.556;2023-02-03T02:18:47;2.47;;;1.90;;
51907;SDS011;39320;53.214;6.556;2023-02-03T02:26:59;3.08;;;2.10;;
51907;SDS011;39320;53.214;6.556;2023-02-03T02:35:05;4.95;;;2.65;;
51907;SDS011;39320;53.214;6.556;2023-02-03T02:37:48;3.17;;;2.05;;
51907;SDS011;39320;53.214;6.556;2023-02-03T02:40:21;2.22;;;1.88;;
51907;SDS011;39320;53.214;6.556;2023-02-03T02:43:05;3.00;;;1.63;;
51907;SDS011;39320;53.214;6.556;2023-02-03T02:45:45;3.95;;;1.92;;
51907;SDS011;39320;53.214;6.556;2023-02-03T02:48:16;2.67;;;1.95;;
51907;SDS011;39320;53.214;6.556;2023-02-03T02:50:54;3.92;;;2.13;;
51907;SDS011;39320;53.214;6.556;2023-02-03T02:53:23;2.63;;;2.00;;
51907;SDS011;39320;53.214;6.556;2023-02-03T02:55:53;3.10;;;1.95;;
51907;SDS011;39320;53.214;6.556;2023-02-03T02:58:21;2.92;;;1.83;;
51907;SDS011;39320;53.214;6.556;2023-02-03T03:00:48;6.07;;;2.30;;
51907;SDS011;39320;53.214;6.556;2023-02-03T03:06:05;3.35;;;1.90;;
51907;SDS011;39320;53.214;6.556;2023-02-03T03:11:26;3.50;;;1.98;;
51907;SDS011;39320;53.214;6.556;2023-02-03T03:13:56;2.97;;;2.17;;
51907;SDS011;39320;53.214;6.556;2023-02-03T03:16:24;5.82;;;2.25;;
51907;SDS011;39320;53.214;6.556;2023-02-03T03:21:33;3.78;;;2.58;;
51907;SDS011;39320;53.214;6.556;2023-02-03T03:24:14;4.57;;;2.08;;
51907;SDS011;39320;53.214;6.556;2023-02-03T03:29:28;3.92;;;2.35;;
51907;SDS011;39320;53.214;6.556;2023-02-03T03:31:59;4.10;;;2.33;;
51907;SDS011;39320;53.214;6.556;2023-02-03T03:34:26;5.47;;;1.90;;
51907;SDS011;39320;53.214;6.556;2023-02-03T03:36:56;6.00;;;2.10;;
51907;SDS011;39320;53.214;6.556;2023-02-03T03:47:53;4.47;;;2.28;;
51907;SDS011;39320;53.214;6.556;2023-02-03T03:50:25;4.82;;;2.55;;
51907;SDS011;39320;53.214;6.556;2023-02-03T03:52:54;3.70;;;1.90;;
51907;SDS011;39320;53.214;6.556;2023-02-03T03:55:22;4.07;;;2.20;;
51907;SDS011;39320;53.214;6.556;2023-02-03T03:57:58;3.65;;;2.20;;
51907;SDS011;39320;53.214;6.556;2023-02-03T04:03:24;6.72;;;2.70;;
51907;SDS011;39320;53.214;6.556;2023-02-03T04:05:52;3.15;;;2.20;;
51907;SDS011;39320;53.214;6.556;2023-02-03T04:08:17;4.40;;;2.13;;
51907;SDS011;39320;53.214;6.556;2023-02-03T04:10:43;3.70;;;2.15;;
51907;SDS011;39320;53.214;6.556;2023-02-03T04:13:10;3.72;;;1.88;;
51907;SDS011;39320;53.214;6.556;2023-02-03T04:15:36;4.53;;;2.38;;
51907;SDS011;39320;53.214;6.556;2023-02-03T04:18:03;5.78;;;2.45;;
51907;SDS011;39320;53.214;6.556;2023-02-03T04:20:30;4.43;;;2.17;;
51907;SDS011;39320;53.214;6.556;2023-02-03T04:22:56;5.05;;;2.33;;
51907;SDS011;39320;53.214;6.556;2023-02-03T04:25:23;3.42;;;1.95;;
51907;SDS011;39320;53.214;6.556;2023-02-03T04:27:49;3.70;;;2.03;;
51907;SDS011;39320;53.214;6.556;2023-02-03T04:30:15;6.47;;;2.10;;
51907;SDS011;39320;53.214;6.556;2023-02-03T04:32:42;4.93;;;2.40;;
51907;SDS011;39320;53.214;6.556;2023-02-03T04:35:09;3.30;;;2.28;;
51907;SDS011;39320;53.214;6.556;2023-02-03T04:37:35;6.43;;;2.13;;
51907;SDS011;39320;53.214;6.556;2023-02-03T04:40:01;4.72;;;2.40;;
51907;SDS011;39320;53.214;6.556;2023-02-03T04:42:27;6.13;;;2.50;;
51907;SDS011;39320;53.214;6.556;2023-02-03T04:44:53;5.65;;;2.58;;
51907;SDS011;39320;53.214;6.556;2023-02-03T04:47:20;4.55;;;2.28;;
51907;SDS011;39320;53.214;6.556;2023-02-03T04:49:45;3.53;;;2.00;;
51907;SDS011;39320;53.214;6.556;2023-02-03T04:52:12;3.60;;;2.10;;
51907;SDS011;39320;53.214;6.556;2023-02-03T04:54:37;4.22;;;2.60;;
51907;SDS011;39320;53.214;6.556;2023-02-03T04:57:04;2.97;;;2.08;;
51907;SDS011;39320;53.214;6.556;2023-02-03T04:59:30;3.05;;;1.83;;
51907;SDS011;39320;53.214;6.556;2023-02-03T05:01:56;4.25;;;1.77;;
51907;SDS011;39320;53.214;6.556;2023-02-03T05:04:22;2.50;;;2.08;;
51907;SDS011;39320;53.214;6.556;2023-02-03T05:06:48;5.40;;;2.75;;
51907;SDS011;39320;53.214;6.556;2023-02-03T05:09:14;3.50;;;2.17;;
51907;SDS011;39320;53.214;6.556;2023-02-03T05:11:40;3.63;;;2.22;;
51907;SDS011;39320;53.214;6.556;2023-02-03T05:14:06;4.85;;;1.88;;
51907;SDS011;39320;53.214;6.556;2023-02-03T05:16:31;5.32;;;2.03;;
51907;SDS011;39320;53.214;6.556;2023-02-03T05:18:57;4.70;;;2.13;;
51907;SDS011;39320;53.214;6.556;2023-02-03T05:21:23;4.53;;;2.10;;
51907;SDS011;39320;53.214;6.556;2023-02-03T05:23:50;3.67;;;2.13;;
51907;SDS011;39320;53.214;6.556;2023-02-03T05:26:16;3.30;;;2.10;;
51907;SDS011;39320;53.214;6.556;2023-02-03T05:28:42;4.95;;;2.47;;
51907;SDS011;39320;53.214;6.556;2023-02-03T05:31:08;5.55;;;2.10;;
51907;SDS011;39320;53.214;6.556;2023-02-03T05:33:33;5.32;;;2.20;;
51907;SDS011;39320;53.214;6.556;2023-02-03T05:35:59;5.43;;;2.30;;
51907;SDS011;39320;53.214;6.556;2023-02-03T05:38:25;3.13;;;1.98;;
51907;SDS011;39320;53.214;6.556;2023-02-03T05:40:51;4.28;;;2.50;;
51907;SDS011;39320;53.214;6.556;2023-02-03T05:43:35;5.20;;;2.20;;
51907;SDS011;39320;53.214;6.556;2023-02-03T05:46:02;4.25;;;2.50;;
51907;SDS011;39320;53.214;6.556;2023-02-03T05:48:29;5.93;;;2.28;;
51907;SDS011;39320;53.214;6.556;2023-02-03T05:50:55;4.65;;;2.20;;
51907;SDS011;39320;53.214;6.556;2023-02-03T05:53:21;4.32;;;2.47;;
51907;SDS011;39320;53.214;6.556;2023-02-03T05:55:47;3.17;;;1.95;;
51907;SDS011;39320;53.214;6.556;2023-02-03T05:58:13;6.70;;;2.40;;
51907;SDS011;39320;53.214;6.556;2023-02-03T06:00:39;4.00;;;2.25;;
51907;SDS011;39320;53.214;6.556;2023-02-03T06:03:05;4.85;;;2.47;;
51907;SDS011;39320;53.214;6.556;2023-02-03T06:05:32;4.70;;;2.20;;
51907;SDS011;39320;53.214;6.556;2023-02-03T06:07:59;4.72;;;2.28;;
51907;SDS011;39320;53.214;6.556;2023-02-03T06:10:25;2.67;;;2.35;;
51907;SDS011;39320;53.214;6.556;2023-02-03T06:12:51;3.97;;;2.22;;
51907;SDS011;39320;53.214;6.556;2023-02-03T06:15:17;3.38;;;2.03;;
51907;SDS011;39320;53.214;6.556;2023-02-03T06:17:44;3.58;;;2.30;;
51907;SDS011;39320;53.214;6.556;2023-02-03T06:20:11;3.97;;;2.22;;
51907;SDS011;39320;53.214;6.556;2023-02-03T06:22:38;5.00;;;2.63;;
51907;SDS011;39320;53.214;6.556;2023-02-03T06:25:04;5.05;;;2.75;;
51907;SDS011;39320;53.214;6.556;2023-02-03T06:27:30;3.70;;;2.92;;
51907;SDS011;39320;53.214;6.556;2023-02-03T06:29:55;4.03;;;2.72;;
51907;SDS011;39320;53.214;6.556;2023-02-03T06:32:21;3.75;;;2.42;;
51907;SDS011;39320;53.214;6.556;2023-02-03T06:34:47;4.30;;;2.65;;
51907;SDS011;39320;53.214;6.556;2023-02-03T06:37:13;5.68;;;3.03;;
51907;SDS011;39320;53.214;6.556;2023-02-03T06:39:39;3.58;;;2.25;;
51907;SDS011;39320;53.214;6.556;2023-02-03T06:42:04;7.65;;;2.80;;
51907;SDS011;39320;53.214;6.556;2023-02-03T06:44:30;6.43;;;2.83;;
51907;SDS011;39320;53.214;6.556;2023-02-03T06:46:56;3.88;;;3.00;;
51907;SDS011;39320;53.214;6.556;2023-02-03T06:49:22;7.32;;;3.47;;
51907;SDS011;39320;53.214;6.556;2023-02-03T06:51:48;6.65;;;2.58;;
51907;SDS011;39320;53.214;6.556;2023-02-03T06:54:16;5.00;;;2.88;;
51907;SDS011;39320;53.214;6.556;2023-02-03T06:56:42;5.75;;;3.28;;
51907;SDS011;39320;53.214;6.556;2023-02-03T06:59:07;4.03;;;2.22;;
51907;SDS011;39320;53.214;6.556;2023-02-03T07:01:34;4.78;;;2.88;;
51907;SDS011;39320;53.214;6.556;2023-02-03T07:04:01;10.10;;;3.42;;
51907;SDS011;39320;53.214;6.556;2023-02-03T07:06:27;8.48;;;2.80;;
51907;SDS011;39320;53.214;6.556;2023-02-03T07:09:01;4.95;;;2.92;;
51907;SDS011;39320;53.214;6.556;2023-02-03T07:11:29;5.47;;;2.85;;
51907;SDS011;39320;53.214;6.556;2023-02-03T07:13:55;5.75;;;2.97;;
51907;SDS011;39320;53.214;6.556;2023-02-03T07:16:21;6.05;;;3.15;;
51907;SDS011;39320;53.214;6.556;2023-02-03T07:18:46;6.55;;;2.60;;
51907;SDS011;39320;53.214;6.556;2023-02-03T07:21:12;7.65;;;3.33;;
51907;SDS011;39320;53.214;6.556;2023-02-03T07:23:39;6.20;;;3.08;;
51907;SDS011;39320;53.214;6.556;2023-02-03T07:26:05;7.55;;;3.10;;
51907;SDS011;39320;53.214;6.556;2023-02-03T07:28:32;5.80;;;3.08;;
51907;SDS011;39320;53.214;6.556;2023-02-03T07:30:59;5.40;;;2.83;;
51907;SDS011;39320;53.214;6.556;2023-02-03T07:33:25;6.15;;;3.30;;
51907;SDS011;39320;53.214;6.556;2023-02-03T07:35:56;7.78;;;3.55;;
51907;SDS011;39320;53.214;6.556;2023-02-03T07:38:24;5.00;;;2.83;;
51907;SDS011;39320;53.214;6.556;2023-02-03T07:40:51;8.80;;;4.20;;
51907;SDS011;39320;53.214;6.556;2023-02-03T07:43:17;4.13;;;3.15;;
51907;SDS011;39320;53.214;6.556;2023-02-03T07:45:43;7.25;;;3.40;;
51907;SDS011;39320;53.214;6.556;2023-02-03T07:48:10;6.32;;;3.40;;
51907;SDS011;39320;53.214;6.556;2023-02-03T07:50:36;7.78;;;3.83;;
51907;SDS011;39320;53.214;6.556;2023-02-03T07:53:02;5.43;;;2.97;;
51907;SDS011;39320;53.214;6.556;2023-02-03T07:55:28;8.65;;;3.88;;
51907;SDS011;39320;53.214;6.556;2023-02-03T07:57:56;10.65;;;4.35;;
51907;SDS011;39320;53.214;6.556;2023-02-03T08:00:23;7.43;;;3.17;;
51907;SDS011;39320;53.214;6.556;2023-02-03T08:02:49;9.98;;;4.57;;
51907;SDS011;39320;53.214;6.556;2023-02-03T08:05:15;8.57;;;4.10;;
51907;SDS011;39320;53.214;6.556;2023-02-03T08:07:41;8.80;;;3.58;;
51907;SDS011;39320;53.214;6.556;2023-02-03T08:10:07;6.13;;;3.42;;
51907;SDS011;39320;53.214;6.556;2023-02-03T08:12:37;9.15;;;4.18;;
51907;SDS011;39320;53.214;6.556;2023-02-03T08:15:03;8.15;;;3.70;;
51907;SDS011;39320;53.214;6.556;2023-02-03T08:17:29;12.95;;;4.43;;
51907;SDS011;39320;53.214;6.556;2023-02-03T08:19:55;8.05;;;4.65;;
51907;SDS011;39320;53.214;6.556;2023-02-03T08:22:21;8.50;;;4.35;;
51907;SDS011;39320;53.214;6.556;2023-02-03T08:24:46;11.93;;;4.32;;
51907;SDS011;39320;53.214;6.556;2023-02-03T08:27:13;11.88;;;4.80;;
51907;SDS011;39320;53.214;6.556;2023-02-03T08:29:43;8.55;;;3.60;;
51907;SDS011;39320;53.214;6.556;2023-02-03T08:32:10;7.05;;;4.05;;
51907;SDS011;39320;53.214;6.556;2023-02-03T08:34:41;7.43;;;3.90;;
51907;SDS011;39320;53.214;6.556;2023-02-03T08:37:07;6.70;;;3.90;;
51907;SDS011;39320;53.214;6.556;2023-02-03T08:39:34;6.78;;;3.42;;
51907;SDS011;39320;53.214;6.556;2023-02-03T08:42:00;10.10;;;3.65;;
51907;SDS011;39320;53.214;6.556;2023-02-03T08:44:28;8.32;;;3.90;;
51907;SDS011;39320;53.214;6.556;2023-02-03T08:47:13;9.52;;;4.30;;
51907;SDS011;39320;53.214;6.556;2023-02-03T08:49:39;11.15;;;4.60;;
51907;SDS011;39320;53.214;6.556;2023-02-03T08:52:06;9.50;;;4.03;;
51907;SDS011;39320;53.214;6.556;2023-02-03T08:54:33;9.73;;;4.55;;
51907;SDS011;39320;53.214;6.556;2023-02-03T08:56:59;9.43;;;4.28;;
51907;SDS011;39320;53.214;6.556;2023-02-03T08:59:24;10.15;;;4.30;;
51907;SDS011;39320;53.214;6.556;2023-02-03T09:01:50;10.88;;;4.38;;
51907;SDS011;39320;53.214;6.556;2023-02-03T09:04:17;8.20;;;4.72;;
51907;SDS011;39320;53.214;6.556;2023-02-03T09:06:48;9.77;;;4.50;;
51907;SDS011;39320;53.214;6.556;2023-02-03T09:09:15;7.07;;;3.83;;
51907;SDS011;39320;53.214;6.556;2023-02-03T09:11:41;6.38;;;4.20;;
51907;SDS011;39320;53.214;6.556;2023-02-03T09:14:07;9.55;;;3.80;;
51907;SDS011;39320;53.214;6.556;2023-02-03T09:16:34;7.65;;;4.00;;
51907;SDS011;39320;53.214;6.556;2023-02-03T09:18:59;5.95;;;3.75;;
51907;SDS011;39320;53.214;6.556;2023-02-03T09:21:25;7.85;;;3.78;;
51907;SDS011;39320;53.214;6.556;2023-02-03T09:23:51;9.85;;;4.47;;
51907;SDS011;39320;53.214;6.556;2023-02-03T09:26:20;9.40;;;4.22;;
51907;SDS011;39320;53.214;6.556;2023-02-03T09:28:45;7.18;;;3.63;;
51907;SDS011;39320;53.214;6.556;2023-02-03T09:31:12;9.05;;;4.38;;
51907;SDS011;39320;53.214;6.556;2023-02-03T09:33:41;9.80;;;4.20;;
51907;SDS011;39320;53.214;6.556;2023-02-03T09:36:08;7.82;;;4.00;;
51907;SDS011;39320;53.214;6.556;2023-02-03T09:38:34;9.45;;;4.28;;
51907;SDS011;39320;53.214;6.556;2023-02-03T09:41:02;11.00;;;5.30;;
51907;SDS011;39320;53.214;6.556;2023-02-03T09:46:29;13.13;;;5.07;;
51907;SDS011;39320;53.214;6.556;2023-02-03T09:49:07;7.20;;;3.95;;
51907;SDS011;39320;53.214;6.556;2023-02-03T09:51:43;8.68;;;3.97;;
51907;SDS011;39320;53.214;6.556;2023-02-03T09:56:59;9.82;;;4.18;;
51907;SDS011;39320;53.214;6.556;2023-02-03T09:59:28;7.97;;;4.60;;
51907;SDS011;39320;53.214;6.556;2023-02-03T10:04:56;12.02;;;4.65;;
51907;SDS011;39320;53.214;6.556;2023-02-03T10:07:41;9.77;;;4.75;;
51907;SDS011;39320;53.214;6.556;2023-02-03T10:18:21;9.48;;;4.57;;
51907;SDS011;39320;53.214;6.556;2023-02-03T10:20:52;10.95;;;4.40;;
51907;SDS011;39320;53.214;6.556;2023-02-03T10:23:30;11.53;;;4.83;;
51907;SDS011;39320;53.214;6.556;2023-02-03T10:26:01;9.65;;;4.90;;
51907;SDS011;39320;53.214;6.556;2023-02-03T10:28:34;10.15;;;5.32;;
51907;SDS011;39320;53.214;6.556;2023-02-03T10:31:17;11.20;;;4.82;;
51907;SDS011;39320;53.214;6.556;2023-02-03T10:33:45;12.07;;;5.28;;
51907;SDS011;39320;53.214;6.556;2023-02-03T10:42:00;15.50;;;5.13;;
51907;SDS011;39320;53.214;6.556;2023-02-03T10:44:34;13.57;;;5.30;;
51907;SDS011;39320;53.214;6.556;2023-02-03T10:50:17;10.57;;;4.97;;
51907;SDS011;39320;53.214;6.556;2023-02-03T10:52:44;10.48;;;5.20;;
51907;SDS011;39320;53.214;6.556;2023-02-03T10:57:56;15.07;;;5.45;;
51907;SDS011;39320;53.214;6.556;2023-02-03T11:00:26;14.25;;;6.03;;
51907;SDS011;39320;53.214;6.556;2023-02-03T11:05:34;14.50;;;5.05;;
51907;SDS011;39320;53.214;6.556;2023-02-03T11:08:00;10.40;;;4.85;;
51907;SDS011;39320;53.214;6.556;2023-02-03T11:10:38;10.90;;;5.20;;
51907;SDS011;39320;53.214;6.556;2023-02-03T11:15:33;11.88;;;5.38;;
51907;SDS011;39320;53.214;6.556;2023-02-03T11:17:59;15.20;;;4.82;;
51907;SDS011;39320;53.214;6.556;2023-02-03T11:20:25;13.80;;;5.70;;
51907;SDS011;39320;53.214;6.556;2023-02-03T11:22:53;14.18;;;5.55;;
51907;SDS011;39320;53.214;6.556;2023-02-03T11:25:30;12.27;;;6.20;;
51907;SDS011;39320;53.214;6.556;2023-02-03T11:30:27;10.70;;;4.43;;
51907;SDS011;39320;53.214;6.556;2023-02-03T11:32:54;9.95;;;5.22;;
51907;SDS011;39320;53.214;6.556;2023-02-03T11:35:24;10.23;;;4.93;;
51907;SDS011;39320;53.214;6.556;2023-02-03T11:37:52;11.63;;;4.55;;
51907;SDS011;39320;53.214;6.556;2023-02-03T11:43:30;10.15;;;4.80;;
51907;SDS011;39320;53.214;6.556;2023-02-03T11:45:49;11.07;;;5.13;;
51907;SDS011;39320;53.214;6.556;2023-02-03T11:56:48;8.70;;;4.82;;
51907;SDS011;39320;53.214;6.556;2023-02-03T11:59:35;12.35;;;4.53;;
51907;SDS011;39320;53.214;6.556;2023-02-03T12:10:02;9.38;;;4.93;;
51907;SDS011;39320;53.214;6.556;2023-02-03T12:13:20;13.95;;;5.53;;
51907;SDS011;39320;53.214;6.556;2023-02-03T12:24:08;12.33;;;5.27;;
51907;SDS011;39320;53.214;6.556;2023-02-03T12:26:11;13.25;;;5.07;;
51907;SDS011;39320;53.214;6.556;2023-02-03T12:28:44;10.00;;;4.50;;
51907;SDS011;39320;53.214;6.556;2023-02-03T12:33:56;12.30;;;4.28;;
51907;SDS011;39320;53.214;6.556;2023-02-03T12:36:50;9.40;;;4.03;;
51907;SDS011;39320;53.214;6.556;2023-02-03T12:41:55;9.43;;;4.63;;
51907;SDS011;39320;53.214;6.556;2023-02-03T12:44:28;8.65;;;4.00;;
51907;SDS011;39320;53.214;6.556;2023-02-03T12:50:03;9.05;;;4.47;;
51907;SDS011;39320;53.214;6.556;2023-02-03T12:52:53;9.13;;;4.40;;
51907;SDS011;39320;53.214;6.556;2023-02-03T12:58:10;10.45;;;4.57;;
51907;SDS011;39320;53.214;6.556;2023-02-03T13:00:42;11.40;;;4.88;;
51907;SDS011;39320;53.214;6.556;2023-02-03T13:05:44;11.00;;;5.13;;
51907;SDS011;39320;53.214;6.556;2023-02-03T13:08:33;8.20;;;4.68;;
51907;SDS011;39320;53.214;6.556;2023-02-03T13:14:10;12.10;;;5.03;;
51907;SDS011;39320;53.214;6.556;2023-02-03T13:16:41;17.08;;;6.65;;
51907;SDS011;39320;53.214;6.556;2023-02-03T13:19:12;15.25;;;5.97;;
51907;SDS011;39320;53.214;6.556;2023-02-03T13:21:42;14.50;;;6.78;;
51907;SDS011;39320;53.214;6.556;2023-02-03T13:24:10;16.23;;;5.18;;
51907;SDS011;39320;53.214;6.556;2023-02-03T13:40:34;10.18;;;4.90;;
51907;SDS011;39320;53.214;6.556;2023-02-03T13:43:15;13.00;;;5.55;;
51907;SDS011;39320;53.214;6.556;2023-02-03T13:50:41;17.80;;;6.00;;
51907;SDS011;39320;53.214;6.556;2023-02-03T13:53:21;13.50;;;4.95;;
51907;SDS011;39320;53.214;6.556;2023-02-03T13:55:59;12.25;;;5.38;;
51907;SDS011;39320;53.214;6.556;2023-02-03T13:58:31;13.05;;;5.03;;
51907;SDS011;39320;53.214;6.556;2023-02-03T14:05:59;10.82;;;5.75;;
51907;SDS011;39320;53.214;6.556;2023-02-03T14:14:39;11.73;;;4.82;;
51907;SDS011;39320;53.214;6.556;2023-02-03T14:16:47;13.55;;;4.63;;
51907;SDS011;39320;53.214;6.556;2023-02-03T14:21:54;10.15;;;4.72;;
51907;SDS011;39320;53.214;6.556;2023-02-03T14:24:30;16.05;;;5.65;;
51907;SDS011;39320;53.214;6.556;2023-02-03T14:26:58;11.15;;;4.80;;
51907;SDS011;39320;53.214;6.556;2023-02-03T14:29:31;11.68;;;4.30;;
51907;SDS011;39320;53.214;6.556;2023-02-03T14:34:47;8.52;;;4.45;;
51907;SDS011;39320;53.214;6.556;2023-02-03T14:50:58;6.75;;;4.03;;
51907;SDS011;39320;53.214;6.556;2023-02-03T14:56:30;8.57;;;4.05;;
51907;SDS011;39320;53.214;6.556;2023-02-03T14:59:39;7.85;;;3.65;;
51907;SDS011;39320;53.214;6.556;2023-02-03T15:02:19;13.18;;;4.55;;
51907;SDS011;39320;53.214;6.556;2023-02-03T15:04:49;10.32;;;4.55;;
51907;SDS011;39320;53.214;6.556;2023-02-03T15:07:49;9.43;;;4.32;;
51907;SDS011;39320;53.214;6.556;2023-02-03T15:12:51;8.68;;;4.68;;
51907;SDS011;39320;53.214;6.556;2023-02-03T15:17:51;6.88;;;4.32;;
51907;SDS011;39320;53.214;6.556;2023-02-03T15:22:56;9.98;;;3.85;;
51907;SDS011;39320;53.214;6.556;2023-02-03T15:25:22;9.23;;;4.72;;
51907;SDS011;39320;53.214;6.556;2023-02-03T15:27:50;9.93;;;3.92;;
51907;SDS011;39320;53.214;6.556;2023-02-03T15:30:17;10.00;;;4.10;;
51907;SDS011;39320;53.214;6.556;2023-02-03T15:33:04;13.40;;;4.32;;
51907;SDS011;39320;53.214;6.556;2023-02-03T15:35:33;10.07;;;4.47;;
51907;SDS011;39320;53.214;6.556;2023-02-03T15:38:05;8.20;;;4.25;;
51907;SDS011;39320;53.214;6.556;2023-02-03T15:40:43;7.38;;;4.03;;
51907;SDS011;39320;53.214;6.556;2023-02-03T15:43:35;11.02;;;4.53;;
51907;SDS011;39320;53.214;6.556;2023-02-03T15:46:09;9.90;;;4.55;;
51907;SDS011;39320;53.214;6.556;2023-02-03T15:49:05;8.38;;;4.15;;
51907;SDS011;39320;53.214;6.556;2023-02-03T15:51:43;6.70;;;3.38;;
51907;SDS011;39320;53.214;6.556;2023-02-03T15:54:27;7.85;;;3.63;;
51907;SDS011;39320;53.214;6.556;2023-02-03T15:57:05;10.98;;;3.88;;
51907;SDS011;39320;53.214;6.556;2023-02-03T15:59:41;7.10;;;3.80;;
51907;SDS011;39320;53.214;6.556;2023-02-03T16:02:17;9.60;;;4.18;;
51907;SDS011;39320;53.214;6.556;2023-02-03T16:04:46;11.00;;;5.25;;
51907;SDS011;39320;53.214;6.556;2023-02-03T16:07:27;13.65;;;4.60;;
51907;SDS011;39320;53.214;6.556;2023-02-03T16:09:55;10.18;;;4.72;;
51907;SDS011;39320;53.214;6.556;2023-02-03T16:12:31;11.63;;;5.03;;
51907;SDS011;39320;53.214;6.556;2023-02-03T16:14:59;11.73;;;4.18;;
51907;SDS011;39320;53.214;6.556;2023-02-03T16:23:01;9.13;;;4.53;;
51907;SDS011;39320;53.214;6.556;2023-02-03T16:25:32;11.77;;;4.90;;
51907;SDS011;39320;53.214;6.556;2023-02-03T16:33:44;11.13;;;5.03;;
51907;SDS011;39320;53.214;6.556;2023-02-03T16:36:30;12.25;;;4.65;;
51907;SDS011;39320;53.214;6.556;2023-02-03T16:39:15;12.00;;;5.72;;
51907;SDS011;39320;53.214;6.556;2023-02-03T16:41:59;7.68;;;4.18;;
51907;SDS011;39320;53.214;6.556;2023-02-03T16:44:49;8.13;;;4.32;;
51907;SDS011;39320;53.214;6.556;2023-02-03T16:47:37;8.25;;;4.75;;
51907;SDS011;39320;53.214;6.556;2023-02-03T16:50:22;11.40;;;4.35;;
51907;SDS011;39320;53.214;6.556;2023-02-03T16:53:14;10.43;;;4.50;;
51907;SDS011;39320;53.214;6.556;2023-02-03T16:55:42;8.02;;;4.18;;
51907;SDS011;39320;53.214;6.556;2023-02-03T16:58:08;7.78;;;4.25;;
51907;SDS011;39320;53.214;6.556;2023-02-03T17:00:36;11.88;;;4.85;;
51907;SDS011;39320;53.214;6.556;2023-02-03T17:03:05;9.60;;;4.35;;
51907;SDS011;39320;53.214;6.556;2023-02-03T17:05:35;8.32;;;4.05;;
51907;SDS011;39320;53.214;6.556;2023-02-03T17:08:02;8.35;;;4.00;;
51907;SDS011;39320;53.214;6.556;2023-02-03T17:10:28;9.43;;;4.03;;
51907;SDS011;39320;53.214;6.556;2023-02-03T17:12:54;8.60;;;4.57;;
51907;SDS011;39320;53.214;6.556;2023-02-03T17:15:20;9.40;;;4.00;;
51907;SDS011;39320;53.214;6.556;2023-02-03T17:17:45;9.10;;;4.35;;
51907;SDS011;39320;53.214;6.556;2023-02-03T17:20:11;9.50;;;4.70;;
51907;SDS011;39320;53.214;6.556;2023-02-03T17:22:37;9.98;;;4.30;;
51907;SDS011;39320;53.214;6.556;2023-02-03T17:25:03;9.38;;;4.53;;
51907;SDS011;39320;53.214;6.556;2023-02-03T17:27:28;10.48;;;4.72;;
51907;SDS011;39320;53.214;6.556;2023-02-03T17:29:55;8.57;;;4.40;;
51907;SDS011;39320;53.214;6.556;2023-02-03T17:32:21;11.60;;;5.55;;
51907;SDS011;39320;53.214;6.556;2023-02-03T17:34:47;9.75;;;4.88;;
51907;SDS011;39320;53.214;6.556;2023-02-03T17:37:12;9.65;;;4.43;;
51907;SDS011;39320;53.214;6.556;2023-02-03T17:39:38;9.68;;;3.92;;
51907;SDS011;39320;53.214;6.556;2023-02-03T17:42:04;10.77;;;4.15;;
51907;SDS011;39320;53.214;6.556;2023-02-03T17:44:30;8.35;;;4.57;;
51907;SDS011;39320;53.214;6.556;2023-02-03T17:46:57;8.35;;;3.67;;
51907;SDS011;39320;53.214;6.556;2023-02-03T17:49:23;9.05;;;3.95;;
51907;SDS011;39320;53.214;6.556;2023-02-03T17:51:48;8.25;;;4.20;;
51907;SDS011;39320;53.214;6.556;2023-02-03T17:54:14;12.85;;;4.97;;
51907;SDS011;39320;53.214;6.556;2023-02-03T17:56:40;6.38;;;3.78;;
51907;SDS011;39320;53.214;6.556;2023-02-03T17:59:06;9.88;;;4.25;;
51907;SDS011;39320;53.214;6.556;2023-02-03T18:01:33;10.57;;;4.32;;
51907;SDS011;39320;53.214;6.556;2023-02-03T18:04:02;8.77;;;3.75;;
51907;SDS011;39320;53.214;6.556;2023-02-03T18:06:30;10.32;;;4.15;;